Time;durP1;ratioP1;P1;durP2;ratioP2;P2;SDS_P1;SDS_P2;PMS_P1;PMS_P2;Temp;Humidity;BMP_temperature;BMP_pressure;BME280_temperature;BME280_humidity;BME280_pressure;Samples;Min_cycle;Max_cycle;Signal;HPM_P1;HPM_P2
2024/01/09 00:02:26;;;;;;;7.00;1.63;;;;;;;;;;5092158;28;20052;-75
2024/01/09 00:04:52;;;;;;;6.00;1.98;;;;;;;;;;5091741;28;20047;-75
2024/01/09 00:07:18;;;;;;;5.57;1.70;;;;;;;;;;5092622;28;20113;-73
2024/01/09 00:09:44;;;;;;;4.72;1.38;;;;;;;;;;5093350;28;20050;-75
2024/01/09 00:12:10;;;;;;;7.07;2.03;;;;;;;;;;5091290;28;20051;-75
2024/01/09 00:14:36;;;;;;;7.07;1.73;;;;;;;;;;5091408;28;20044;-74
2024/01/09 00:17:02;;;;;;;8.60;2.70;;;;;;;;;;5092071;28;20060;-74
2024/01/09 00:19:29;;;;;;;7.35;2.05;;;;;;;;;;5091760;28;20357;-75
2024/01/09 00:21:56;;;;;;;5.32;1.70;;;;;;;;;;5093029;28;20048;-74
2024/01/09 00:24:22;;;;;;;6.15;1.98;;;;;;;;;;5091455;28;20048;-74
2024/01/09 00:26:48;;;;;;;7.18;2.47;;;;;;;;;;5092947;28;20051;-75
2024/01/09 00:29:14;;;;;;;9.40;2.78;;;;;;;;;;5093892;28;20040;-74
2024/01/09 00:31:40;;;;;;;5.18;1.35;;;;;;;;;;5093927;28;20496;-74
2024/01/09 00:34:08;;;;;;;4.47;1.35;;;;;;;;;;5092953;28;20087;-75
2024/01/09 00:36:34;;;;;;;8.32;1.98;;;;;;;;;;5093329;28;20040;-76
2024/01/09 00:39:00;;;;;;;8.23;2.45;;;;;;;;;;5093177;28;20512;-75
2024/01/09 00:41:26;;;;;;;5.40;1.77;;;;;;;;;;5091346;28;20048;-75
2024/01/09 00:43:52;;;;;;;8.18;2.30;;;;;;;;;;5092398;28;20040;-75
2024/01/09 00:46:18;;;;;;;9.02;2.38;;;;;;;;;;5092333;28;20044;-75
2024/01/09 00:48:44;;;;;;;6.85;2.30;;;;;;;;;;5092630;28;20130;-74
2024/01/09 00:51:10;;;;;;;6.05;2.20;;;;;;;;;;5090961;28;20415;-73
2024/01/09 00:53:36;;;;;;;3.60;1.02;;;;;;;;;;5091245;28;20047;-76
2024/01/09 00:56:03;;;;;;;3.42;1.08;;;;;;;;;;5092691;28;20063;-76
2024/01/09 00:58:29;;;;;;;6.82;2.83;;;;;;;;;;5093089;28;20040;-74
2024/01/09 01:00:55;;;;;;;9.27;3.25;;;;;;;;;;5093590;28;20149;-74
2024/01/09 01:03:21;;;;;;;6.47;1.80;;;;;;;;;;5092659;28;20044;-74
2024/01/09 01:05:47;;;;;;;10.85;2.60;;;;;;;;;;5091797;28;20074;-73
2024/01/09 01:08:13;;;;;;;5.90;1.70;;;;;;;;;;5092115;28;20051;-73
2024/01/09 01:10:39;;;;;;;5.85;1.85;;;;;;;;;;5092491;28;20048;-74
2024/01/09 01:13:05;;;;;;;8.02;2.55;;;;;;;;;;5094739;28;20052;-74
2024/01/09 01:15:32;;;;;;;5.15;1.80;;;;;;;;;;5096170;28;20092;-76
2024/01/09 01:17:58;;;;;;;3.55;1.27;;;;;;;;;;5096274;28;20063;-74
2024/01/09 01:20:24;;;;;;;5.65;1.40;;;;;;;;;;5094572;28;20434;-74
2024/01/09 01:22:51;;;;;;;5.50;1.52;;;;;;;;;;5096061;28;20047;-74
2024/01/09 01:25:17;;;;;;;8.90;2.25;;;;;;;;;;5095400;28;20558;-74
2024/01/09 01:27:43;;;;;;;5.47;1.55;;;;;;;;;;5095154;28;20051;-75
2024/01/09 01:30:09;;;;;;;6.05;1.40;;;;;;;;;;5095497;28;20504;-73
2024/01/09 01:32:35;;;;;;;5.18;1.00;;;;;;;;;;5095852;28;20044;-74
2024/01/09 01:35:01;;;;;;;6.15;1.88;;;;;;;;;;5095780;28;20044;-75
2024/01/09 01:37:28;;;;;;;4.40;1.45;;;;;;;;;;5077668;28;20392;-74
2024/01/09 01:39:54;;;;;;;4.88;1.40;;;;;;;;;;5095437;28;20098;-74
2024/01/09 01:42:20;;;;;;;2.13;0.70;;;;;;;;;;5094426;28;20050;-74
2024/01/09 01:44:46;;;;;;;4.28;1.23;;;;;;;;;;5095613;28;20040;-74
2024/01/09 01:47:12;;;;;;;7.72;0.88;;;;;;;;;;5094024;28;20074;-74
2024/01/09 01:49:38;;;;;;;5.10;1.45;;;;;;;;;;5095583;28;20048;-74
2024/01/09 01:52:05;;;;;;;6.18;1.50;;;;;;;;;;5095422;28;20043;-74
2024/01/09 01:54:32;;;;;;;4.93;1.63;;;;;;;;;;5093424;28;20170;-73
2024/01/09 01:56:59;;;;;;;4.70;1.33;;;;;;;;;;5094226;28;20431;-73
2024/01/09 01:59:26;;;;;;;5.38;1.90;;;;;;;;;;5076989;28;20506;-74
2024/01/09 02:01:52;;;;;;;8.02;1.90;;;;;;;;;;5093963;28;20056;-74
2024/01/09 02:04:19;;;;;;;3.63;0.73;;;;;;;;;;5094732;28;20044;-74
2024/01/09 02:06:45;;;;;;;;;;;;;;;;;;5094655;28;20052;-75
2024/01/09 02:09:12;;;;;;;4.43;1.42;;;;;;;;;;5093855;28;20007;-75
2024/01/09 02:11:38;;;;;;;6.13;1.50;;;;;;;;;;5094105;28;20050;-74
2024/01/09 02:14:04;;;;;;;5.40;2.03;;;;;;;;;;5095702;28;20036;-74
2024/01/09 02:16:30;;;;;;;6.78;1.50;;;;;;;;;;5095243;28;20056;-73
2024/01/09 02:18:56;;;;;;;5.65;1.60;;;;;;;;;;5095235;28;20126;-75
2024/01/09 02:21:22;;;;;;;8.30;2.05;;;;;;;;;;5093970;28;20047;-75
2024/01/09 02:23:49;;;;;;;4.93;0.70;;;;;;;;;;5098423;28;20050;-81
2024/01/09 02:26:18;;;;;;;6.05;1.60;;;;;;;;;;5097383;28;20478;-80
2024/01/09 02:28:47;;;;;;;4.82;1.27;;;;;;;;;;5098522;28;20077;-76
2024/01/09 02:31:13;;;;;;;5.78;1.75;;;;;;;;;;5096557;28;20036;-80
2024/01/09 02:33:40;;;;;;;5.57;1.10;;;;;;;;;;5096616;28;20040;-78
2024/01/09 02:36:06;;;;;;;4.43;1.17;;;;;;;;;;5100246;28;20360;-77
2024/01/09 02:38:34;;;;;;;4.90;1.50;;;;;;;;;;5101693;28;20055;-80
2024/01/09 02:41:00;;;;;;;3.22;0.90;;;;;;;;;;5098580;28;20101;-78
2024/01/09 02:43:26;;;;;;;2.55;0.57;;;;;;;;;;5097798;28;20055;-77
2024/01/09 02:45:52;;;;;;;3.67;1.00;;;;;;;;;;5099526;28;20055;-78
2024/01/09 02:48:19;;;;;;;4.28;1.13;;;;;;;;;;5098419;28;20040;-78
2024/01/09 02:50:45;;;;;;;5.63;1.35;;;;;;;;;;5080873;28;20051;-81
2024/01/09 02:53:11;;;;;;;3.60;1.20;;;;;;;;;;5100789;28;20473;-81
2024/01/09 02:55:37;;;;;;;3.78;1.27;;;;;;;;;;5098929;28;20096;-77
2024/01/09 02:58:03;;;;;;;3.97;1.13;;;;;;;;;;5099797;28;20480;-78
2024/01/09 03:00:30;;;;;;;5.00;1.17;;;;;;;;;;5098479;28;20040;-77
2024/01/09 03:02:56;;;;;;;5.32;1.00;;;;;;;;;;5101194;28;20056;-77
2024/01/09 03:05:22;;;;;;;3.70;0.90;;;;;;;;;;5103287;28;20048;-78
2024/01/09 03:07:48;;;;;;;3.28;1.02;;;;;;;;;;5097508;28;20051;-78
2024/01/09 03:10:14;;;;;;;4.55;1.42;;;;;;;;;;5098026;28;20100;-81
2024/01/09 03:12:40;;;;;;;4.63;1.27;;;;;;;;;;5098638;28;20044;-78
2024/01/09 03:15:07;;;;;;;3.38;0.90;;;;;;;;;;5097381;28;20464;-78
2024/01/09 03:17:33;;;;;;;4.45;1.05;;;;;;;;;;5100848;28;20054;-79
2024/01/09 03:19:59;;;;;;;3.90;0.95;;;;;;;;;;5098071;28;20044;-76
2024/01/09 03:22:25;;;;;;;2.95;0.68;;;;;;;;;;5097578;28;20040;-77
2024/01/09 03:24:51;;;;;;;8.95;0.80;;;;;;;;;;5097123;28;20059;-77
2024/01/09 03:27:17;;;;;;;3.45;1.15;;;;;;;;;;5098448;28;20428;-78
2024/01/09 03:29:43;;;;;;;2.75;0.82;;;;;;;;;;5098346;28;20047;-76
2024/01/09 03:32:09;;;;;;;3.28;0.60;;;;;;;;;;5098300;28;20048;-79
2024/01/09 03:34:35;;;;;;;1.23;0.55;;;;;;;;;;5099905;28;20044;-77
2024/01/09 03:37:02;;;;;;;3.45;0.90;;;;;;;;;;5099476;28;20090;-77
2024/01/09 03:39:28;;;;;;;3.28;0.90;;;;;;;;;;5082187;28;20148;-78
2024/01/09 03:41:54;;;;;;;6.18;1.30;;;;;;;;;;5082024;28;20082;-77
2024/01/09 03:44:20;;;;;;;5.03;1.50;;;;;;;;;;5097849;28;20036;-79
2024/01/09 03:46:46;;;;;;;3.83;0.80;;;;;;;;;;5098606;28;20044;-78
2024/01/09 03:49:12;;;;;;;4.22;1.00;;;;;;;;;;5099762;28;20055;-77
2024/01/09 03:51:38;;;;;;;3.85;1.13;;;;;;;;;;5096507;28;20093;-77
2024/01/09 03:54:04;;;;;;;1.50;0.50;;;;;;;;;;5097804;28;20112;-77
2024/01/09 03:56:30;;;;;;;2.10;0.73;;;;;;;;;;5099908;28;20048;-77
2024/01/09 03:58:57;;;;;;;4.43;1.40;;;;;;;;;;5098640;28;20460;-77
2024/01/09 04:01:23;;;;;;;3.13;1.27;;;;;;;;;;5099393;28;20123;-76
2024/01/09 04:03:49;;;;;;;8.05;1.45;;;;;;;;;;5097588;28;20044;-77
2024/01/09 04:06:15;;;;;;;3.50;0.55;;;;;;;;;;5097911;28;20055;-77
2024/01/09 04:08:41;;;;;;;3.78;0.88;;;;;;;;;;5097352;28;20050;-78
2024/01/09 04:11:07;;;;;;;4.75;1.23;;;;;;;;;;5096573;28;20047;-75
2024/01/09 04:13:33;;;;;;;3.13;0.70;;;;;;;;;;5097689;28;20488;-77
2024/01/09 04:15:59;;;;;;;1.80;0.70;;;;;;;;;;5099202;28;20500;-77
2024/01/09 04:18:25;;;;;;;2.78;0.70;;;;;;;;;;5098966;28;20051;-78
2024/01/09 04:20:51;;;;;;;3.47;1.00;;;;;;;;;;5096316;28;20136;-76
2024/01/09 04:23:17;;;;;;;7.13;2.35;;;;;;;;;;5096588;28;20044;-77
2024/01/09 04:25:43;;;;;;;6.00;1.40;;;;;;;;;;5096454;28;20044;-76
2024/01/09 04:28:10;;;;;;;6.72;1.55;;;;;;;;;;5096465;28;20458;-78
2024/01/09 04:30:36;;;;;;;2.40;0.63;;;;;;;;;;5097085;28;20048;-78
2024/01/09 04:33:02;;;;;;;4.57;0.65;;;;;;;;;;5099558;28;20408;-76
2024/01/09 04:35:28;;;;;;;3.53;1.25;;;;;;;;;;5098507;28;20043;-77
2024/01/09 04:37:54;;;;;;;3.92;0.90;;;;;;;;;;5097700;28;20090;-77
2024/01/09 04:40:20;;;;;;;5.95;1.52;;;;;;;;;;5093766;28;20101;-78
2024/01/09 04:42:46;;;;;;;2.58;0.75;;;;;;;;;;5096189;28;20314;-77
2024/01/09 04:45:12;;;;;;;2.95;0.88;;;;;;;;;;5077926;28;20048;-78
2024/01/09 04:47:38;;;;;;;6.28;1.15;;;;;;;;;;5098329;28;20047;-78
2024/01/09 04:50:04;;;;;;;4.88;1.02;;;;;;;;;;5099854;28;20044;-77
2024/01/09 04:52:31;;;;;;;2.28;0.68;;;;;;;;;;5101059;28;20051;-77
2024/01/09 04:54:57;;;;;;;2.22;0.75;;;;;;;;;;5100287;28;20040;-79
2024/01/09 04:57:23;;;;;;;3.38;1.27;;;;;;;;;;5100730;28;20059;-78
2024/01/09 04:59:49;;;;;;;4.20;1.10;;;;;;;;;;5102911;28;20433;-78
2024/01/09 05:02:15;;;;;;;7.32;2.10;;;;;;;;;;5100786;28;20090;-78
2024/01/09 05:04:41;;;;;;;4.60;1.38;;;;;;;;;;5087490;28;20056;-77
2024/01/09 05:07:08;;;;;;;4.90;0.90;;;;;;;;;;5104878;28;20113;-77
2024/01/09 05:09:34;;;;;;;2.38;0.65;;;;;;;;;;5104563;28;20054;-79
2024/01/09 05:12:00;;;;;;;3.85;0.77;;;;;;;;;;5089076;28;20048;-78
2024/01/09 05:14:26;;;;;;;5.38;1.20;;;;;;;;;;5106047;28;20040;-78
2024/01/09 05:16:52;;;;;;;2.83;0.75;;;;;;;;;;5107690;28;20478;-79
2024/01/09 05:19:18;;;;;;;5.60;1.10;;;;;;;;;;5089477;28;20166;-80
2024/01/09 05:21:44;;;;;;;6.00;1.40;;;;;;;;;;5109170;28;20055;-78
2024/01/09 05:24:10;;;;;;;2.65;0.85;;;;;;;;;;5109409;28;20040;-80
2024/01/09 05:26:36;;;;;;;1.73;0.70;;;;;;;;;;5086216;28;20186;-78
2024/01/09 05:29:02;;;;;;;2.08;0.73;;;;;;;;;;5100675;28;20048;-78
2024/01/09 05:31:28;;;;;;;3.33;1.08;;;;;;;;;;5101186;28;20134;-79
2024/01/09 05:33:54;;;;;;;6.68;1.35;;;;;;;;;;5102359;28;20073;-79
2024/01/09 05:36:22;;;;;;;4.50;1.33;;;;;;;;;;5106253;28;20044;-79
2024/01/09 05:38:52;;;;;;;3.30;1.05;;;;;;;;;;5106761;28;20052;-79
2024/01/09 05:41:24;;;;;;;3.65;1.10;;;;;;;;;;5089926;28;20044;-79
2024/01/09 05:43:50;;;;;;;5.65;1.50;;;;;;;;;;5090783;28;20058;-78
2024/01/09 05:46:16;;;;;;;4.68;1.30;;;;;;;;;;5107807;28;20079;-78
2024/01/09 05:48:43;;;;;;;4.60;1.17;;;;;;;;;;5108834;28;20044;-80
2024/01/09 05:51:10;;;;;;;5.43;1.08;;;;;;;;;;5109801;28;20044;-81
2024/01/09 05:53:39;;;;;;;3.70;0.67;;;;;;;;;;5090890;28;20044;-78
2024/01/09 05:56:06;;;;;;;5.05;1.15;;;;;;;;;;5108699;28;20099;-78
2024/01/09 05:58:33;;;;;;;3.65;0.90;;;;;;;;;;5107572;28;20059;-79
2024/01/09 06:00:59;;;;;;;2.38;1.13;;;;;;;;;;5110295;28;20126;-78
2024/01/09 06:03:26;;;;;;;4.28;1.30;;;;;;;;;;5109940;28;20044;-77
2024/01/09 06:05:52;;;;;;;2.73;1.13;;;;;;;;;;5106970;28;20055;-78
2024/01/09 06:08:18;;;;;;;4.80;1.33;;;;;;;;;;5088080;28;20282;-79
2024/01/09 06:10:44;;;;;;;6.05;1.42;;;;;;;;;;5100899;28;20395;-77
2024/01/09 06:13:10;;;;;;;6.47;1.58;;;;;;;;;;5101007;28;20055;-76
2024/01/09 06:15:36;;;;;;;6.90;1.05;;;;;;;;;;5104454;28;20111;-78
2024/01/09 06:18:02;;;;;;;4.82;1.33;;;;;;;;;;5102691;28;20063;-77
2024/01/09 06:20:28;;;;;;;4.20;1.00;;;;;;;;;;5085476;28;20040;-77
2024/01/09 06:22:55;;;;;;;9.13;2.03;;;;;;;;;;5084121;28;20048;-78
2024/01/09 06:25:21;;;;;;;4.50;1.20;;;;;;;;;;5097938;28;20054;-77
2024/01/09 06:27:47;;;;;;;3.25;0.63;;;;;;;;;;5101936;28;20083;-78
2024/01/09 06:30:14;;;;;;;3.47;1.08;;;;;;;;;;5100639;28;20048;-78
2024/01/09 06:32:40;;;;;;;4.93;1.00;;;;;;;;;;5083412;28;20048;-78
2024/01/09 06:35:06;;;;;;;3.22;0.65;;;;;;;;;;5103351;28;20302;-80
2024/01/09 06:37:33;;;;;;;8.63;1.15;;;;;;;;;;5103109;28;20137;-78
2024/01/09 06:39:59;;;;;;;2.13;0.65;;;;;;;;;;5105326;28;20052;-77
2024/01/09 06:42:25;;;;;;;3.28;1.20;;;;;;;;;;5085881;28;20047;-78
2024/01/09 06:44:51;;;;;;;2.47;0.77;;;;;;;;;;5103464;28;20047;-76
2024/01/09 06:47:17;;;;;;;3.85;1.00;;;;;;;;;;5104223;28;20055;-78
2024/01/09 06:49:43;;;;;;;6.18;1.60;;;;;;;;;;5108565;28;20127;-79
2024/01/09 06:52:09;;;;;;;4.03;1.10;;;;;;;;;;5103863;28;20127;-77
2024/01/09 06:54:35;;;;;;;3.58;0.95;;;;;;;;;;5087565;28;20044;-78
2024/01/09 06:57:01;;;;;;;5.65;1.52;;;;;;;;;;5102627;28;20159;-79
2024/01/09 06:59:27;;;;;;;7.00;1.38;;;;;;;;;;5103310;28;20055;-79
2024/01/09 07:01:53;;;;;;;2.88;0.75;;;;;;;;;;5106039;28;20078;-78
2024/01/09 07:04:20;;;;;;;2.80;0.73;;;;;;;;;;5105790;28;20047;-78
2024/01/09 07:06:46;;;;;;;6.45;2.05;;;;;;;;;;5099189;28;20070;-78
2024/01/09 07:09:12;;;;;;;3.47;1.10;;;;;;;;;;5102369;28;20507;-78
2024/01/09 07:11:38;;;;;;;4.15;1.13;;;;;;;;;;5103268;28;20561;-77
2024/01/09 07:14:05;;;;;;;7.28;1.42;;;;;;;;;;5100151;28;20484;-78
2024/01/09 07:16:31;;;;;;;2.10;0.70;;;;;;;;;;5100913;28;20060;-76
2024/01/09 07:18:57;;;;;;;4.60;0.93;;;;;;;;;;5100432;28;20099;-77
2024/01/09 07:21:23;;;;;;;6.47;1.75;;;;;;;;;;5081893;28;20400;-78
2024/01/09 07:23:49;;;;;;;4.60;1.30;;;;;;;;;;5096781;28;20126;-79
2024/01/09 07:26:15;;;;;;;5.72;1.25;;;;;;;;;;5099047;28;20048;-77
2024/01/09 07:28:41;;;;;;;4.15;0.80;;;;;;;;;;5101344;28;20369;-78
2024/01/09 07:31:09;;;;;;;6.30;1.83;;;;;;;;;;5097642;28;20055;-78
2024/01/09 07:33:35;;;;;;;6.75;1.17;;;;;;;;;;5099231;28;20048;-76
2024/01/09 07:36:02;;;;;;;1.30;0.40;;;;;;;;;;5099076;28;20054;-78
2024/01/09 07:38:28;;;;;;;5.45;1.58;;;;;;;;;;5097141;28;20040;-78
2024/01/09 07:40:54;;;;;;;5.20;1.42;;;;;;;;;;5097199;28;20048;-78
2024/01/09 07:43:20;;;;;;;3.63;0.90;;;;;;;;;;5097262;28;20142;-78
2024/01/09 07:45:46;;;;;;;2.97;0.95;;;;;;;;;;5098640;28;20051;-77
2024/01/09 07:48:12;;;;;;;6.40;1.52;;;;;;;;;;5082826;28;20048;-78
2024/01/09 07:50:38;;;;;;;6.53;1.80;;;;;;;;;;5102628;28;20087;-77
2024/01/09 07:53:04;;;;;;;5.22;1.08;;;;;;;;;;5098418;28;20048;-77
2024/01/09 07:55:30;;;;;;;7.60;1.55;;;;;;;;;;5094538;28;20040;-76
2024/01/09 07:57:59;;;;;;;10.98;2.53;;;;;;;;;;5094949;28;20048;-76
2024/01/09 08:00:25;;;;;;;5.50;1.42;;;;;;;;;;5077684;28;20040;-76
2024/01/09 08:02:51;;;;;;;3.63;1.15;;;;;;;;;;5077443;28;20425;-79
2024/01/09 08:05:17;;;;;;;2.97;0.80;;;;;;;;;;5079061;28;20117;-76
2024/01/09 08:07:43;;;;;;;4.25;0.98;;;;;;;;;;5095454;28;20051;-77
2024/01/09 08:10:10;;;;;;;3.97;0.68;;;;;;;;;;5094830;28;20054;-76
2024/01/09 08:12:36;;;;;;;5.30;1.20;;;;;;;;;;5094838;28;20054;-76
2024/01/09 08:15:02;;;;;;;4.85;1.33;;;;;;;;;;5096171;28;20044;-75
2024/01/09 08:17:29;;;;;;;5.85;1.60;;;;;;;;;;5094119;28;20060;-77
2024/01/09 08:19:55;;;;;;;3.95;1.15;;;;;;;;;;5095909;28;20134;-77
2024/01/09 08:22:21;;;;;;;3.78;1.20;;;;;;;;;;5096539;28;20129;-77
2024/01/09 08:24:47;;;;;;;5.38;1.08;;;;;;;;;;5094707;28;20048;-77
2024/01/09 08:27:13;;;;;;;2.53;0.82;;;;;;;;;;5094850;28;20047;-77
2024/01/09 08:29:39;;;;;;;2.92;1.00;;;;;;;;;;5096384;28;20439;-75
2024/01/09 08:32:05;;;;;;;3.30;1.08;;;;;;;;;;5077561;28;20135;-74
2024/01/09 08:34:31;;;;;;;2.03;0.57;;;;;;;;;;5094913;28;20062;-78
2024/01/09 08:36:58;;;;;;;3.50;0.65;;;;;;;;;;5078698;28;20285;-77
2024/01/09 08:39:24;;;;;;;3.53;0.93;;;;;;;;;;5096506;28;20044;-77
2024/01/09 08:41:50;;;;;;;3.00;0.88;;;;;;;;;;5094094;28;20289;-77
2024/01/09 08:44:17;;;;;;;3.38;0.60;;;;;;;;;;5093050;28;20492;-76
2024/01/09 08:46:43;;;;;;;5.25;1.48;;;;;;;;;;5092550;28;20052;-77
2024/01/09 08:49:09;;;;;;;3.15;0.50;;;;;;;;;;5094502;28;20044;-77
2024/01/09 08:51:35;;;;;;;4.20;1.65;;;;;;;;;;5093577;28;20422;-77
2024/01/09 08:54:01;;;;;;;2.85;0.77;;;;;;;;;;5093334;28;20174;-76
2024/01/09 08:56:27;;;;;;;5.15;1.13;;;;;;;;;;5093168;28;20480;-75
2024/01/09 08:58:53;;;;;;;5.18;1.20;;;;;;;;;;5093295;28;20040;-76
2024/01/09 09:01:20;;;;;;;1.55;0.43;;;;;;;;;;5095024;28;20048;-76
2024/01/09 09:03:47;;;;;;;2.17;0.60;;;;;;;;;;5093978;28;20037;-78
2024/01/09 09:06:14;;;;;;;5.38;1.10;;;;;;;;;;5077235;28;20095;-76
2024/01/09 09:08:40;;;;;;;4.82;1.75;;;;;;;;;;5093727;28;20101;-76
2024/01/09 09:11:14;;;;;;;4.28;1.00;;;;;;;;;;5093428;28;20153;-75
2024/01/09 09:13:41;;;;;;;4.18;0.60;;;;;;;;;;5094306;28;20051;-74
2024/01/09 09:16:07;;;;;;;3.63;0.75;;;;;;;;;;5093902;28;20090;-75
2024/01/09 09:18:34;;;;;;;1.75;0.52;;;;;;;;;;5094003;28;20078;-76
2024/01/09 09:21:01;;;;;;;4.78;1.10;;;;;;;;;;5093010;28;20048;-75
2024/01/09 09:23:27;;;;;;;3.17;0.85;;;;;;;;;;5093874;28;20091;-75
2024/01/09 09:25:53;;;;;;;2.90;0.85;;;;;;;;;;5092230;28;20051;-75
2024/01/09 09:28:19;;;;;;;4.53;0.63;;;;;;;;;;5093413;28;20408;-78
2024/01/09 09:30:48;;;;;;;5.13;1.10;;;;;;;;;;5093042;28;20482;-76
2024/01/09 09:33:14;;;;;;;6.57;1.05;;;;;;;;;;5094795;28;20460;-76
2024/01/09 09:35:40;;;;;;;5.10;0.85;;;;;;;;;;5095916;28;20544;-75
2024/01/09 09:38:06;;;;;;;3.88;0.82;;;;;;;;;;5097754;28;20044;-77
2024/01/09 09:40:32;;;;;;;3.80;1.00;;;;;;;;;;5095654;28;20210;-76
2024/01/09 09:43:02;;;;;;;5.28;0.93;;;;;;;;;;5097162;28;20083;-76
2024/01/09 09:45:30;;;;;;;9.32;0.75;;;;;;;;;;5096545;28;20052;-75
2024/01/09 09:47:57;;;;;;;3.45;0.70;;;;;;;;;;5096078;28;20083;-76
2024/01/09 09:50:23;;;;;;;5.75;0.90;;;;;;;;;;5096915;28;20067;-76
2024/01/09 09:52:49;;;;;;;2.53;0.95;;;;;;;;;;5097202;28;20130;-77
2024/01/09 09:55:16;;;;;;;2.47;0.53;;;;;;;;;;5095789;28;20036;-73
2024/01/09 09:57:42;;;;;;;3.08;0.77;;;;;;;;;;5095543;28;20388;-75
2024/01/09 10:00:09;;;;;;;3.47;0.85;;;;;;;;;;5097487;28;20047;-76
2024/01/09 10:02:38;;;;;;;1.92;0.52;;;;;;;;;;5096820;28;20051;-73
2024/01/09 10:05:10;;;;;;;4.60;1.23;;;;;;;;;;5096406;28;20047;-76
2024/01/09 10:07:39;;;;;;;3.20;0.88;;;;;;;;;;5095707;28;20097;-74
2024/01/09 10:10:07;;;;;;;4.60;0.98;;;;;;;;;;5096922;28;20122;-75
2024/01/09 10:12:34;;;;;;;2.75;0.90;;;;;;;;;;5080306;28;20107;-74
2024/01/09 10:15:05;;;;;;;5.57;1.25;;;;;;;;;;5099915;28;20050;-76
2024/01/09 10:17:31;;;;;;;3.60;0.75;;;;;;;;;;5106942;28;20082;-76
2024/01/09 10:19:57;;;;;;;3.00;0.52;;;;;;;;;;5110507;28;20080;-75
2024/01/09 10:22:27;;;;;;;3.05;0.85;;;;;;;;;;5101618;28;20040;-74
2024/01/09 10:24:54;;;;;;;2.83;0.50;;;;;;;;;;5096019;28;20063;-74
2024/01/09 10:27:21;;;;;;;4.00;1.10;;;;;;;;;;5096437;28;20051;-77
2024/01/09 10:29:47;;;;;;;4.18;0.95;;;;;;;;;;5094788;28;20173;-74
2024/01/09 10:32:22;;;;;;;2.78;0.90;;;;;;;;;;5094701;28;20048;-76
2024/01/09 10:34:48;;;;;;;4.80;0.70;;;;;;;;;;5094349;28;20050;-76
2024/01/09 10:37:14;;;;;;;4.10;1.25;;;;;;;;;;5094623;28;20048;-75
2024/01/09 10:39:42;;;;;;;6.63;1.57;;;;;;;;;;5095181;28;20039;-77
2024/01/09 10:42:09;;;;;;;;;;;;;;;;;;5095986;28;20048;-75
2024/01/09 10:44:35;;;;;;;3.55;0.70;;;;;;;;;;5095077;28;19978;-76
2024/01/09 10:47:02;;;;;;;9.27;1.40;;;;;;;;;;5094502;28;20052;-76
2024/01/09 10:49:28;;;;;;;6.97;1.43;;;;;;;;;;5094285;28;20599;-75
2024/01/09 10:51:55;;;;;;;4.68;1.23;;;;;;;;;;5093727;28;20286;-75
2024/01/09 10:54:22;;;;;;;4.80;1.48;;;;;;;;;;5095109;28;20098;-76
2024/01/09 10:56:50;;;;;;;4.30;0.85;;;;;;;;;;5095158;28;20452;-76
2024/01/09 10:59:17;;;;;;;4.70;0.77;;;;;;;;;;5094130;28;20545;-75
2024/01/09 11:01:43;;;;;;;2.38;0.60;;;;;;;;;;5095876;28;20399;-76
2024/01/09 11:04:09;;;;;;;5.50;1.65;;;;;;;;;;5095145;28;20075;-76
2024/01/09 11:06:39;;;;;;;3.70;1.37;;;;;;;;;;5077426;28;20062;-75
2024/01/09 11:09:06;;;;;;;3.47;1.02;;;;;;;;;;5093885;28;20047;-76
2024/01/09 11:11:33;;;;;;;3.92;0.70;;;;;;;;;;5093869;28;20399;-75
2024/01/09 11:14:06;;;;;;;3.53;0.63;;;;;;;;;;5094641;28;20036;-77
2024/01/09 11:16:33;;;;;;;5.18;0.93;;;;;;;;;;5094613;28;20064;-76
2024/01/09 11:19:01;;;;;;;3.22;0.90;;;;;;;;;;5093894;28;20111;-77
2024/01/09 11:21:27;;;;;;;3.58;0.65;;;;;;;;;;5094651;28;20150;-76
2024/01/09 11:23:57;;;;;;;4.28;1.10;;;;;;;;;;5094308;28;20491;-76
2024/01/09 11:26:27;;;;;;;2.40;0.63;;;;;;;;;;5094691;28;20091;-74
2024/01/09 11:28:53;;;;;;;4.38;0.60;;;;;;;;;;5094244;28;20059;-76
2024/01/09 11:31:21;;;;;;;3.88;1.15;;;;;;;;;;5076307;28;20043;-76
2024/01/09 11:33:48;;;;;;;4.53;1.05;;;;;;;;;;5094663;28;20087;-74
2024/01/09 11:36:18;;;;;;;4.57;1.23;;;;;;;;;;5095669;28;20066;-77
2024/01/09 11:38:44;;;;;;;3.50;0.80;;;;;;;;;;5094285;28;20048;-78
2024/01/09 11:41:10;;;;;;;5.03;1.25;;;;;;;;;;5094639;28;20464;-75
2024/01/09 11:43:55;;;;;;;5.70;1.20;;;;;;;;;;5093459;28;20052;-74
2024/01/09 11:46:22;;;;;;;2.55;0.60;;;;;;;;;;5093806;28;20044;-74
2024/01/09 11:48:48;;;;;;;3.30;1.27;;;;;;;;;;5076520;28;20048;-77
2024/01/09 11:51:15;;;;;;;5.55;1.42;;;;;;;;;;5077440;28;20044;-76
2024/01/09 11:53:41;;;;;;;2.95;0.80;;;;;;;;;;5094013;28;20083;-75
2024/01/09 11:56:13;;;;;;;5.05;1.20;;;;;;;;;;5094033;28;20084;-77
2024/01/09 11:58:39;;;;;;;4.63;1.08;;;;;;;;;;5076786;28;20104;-74
2024/01/09 12:01:05;;;;;;;5.88;1.30;;;;;;;;;;5094623;28;20078;-76
2024/01/09 12:03:34;;;;;;;3.40;0.77;;;;;;;;;;5094714;28;20047;-74
2024/01/09 12:06:02;;;;;;;4.28;1.20;;;;;;;;;;5093077;28;20040;-74
2024/01/09 12:08:28;;;;;;;;;;;;;;;;;;5095221;28;20059;-74
2024/01/09 12:10:54;;;;;;;3.10;1.08;;;;;;;;;;5094124;28;20384;-76
2024/01/09 12:13:21;;;;;;;4.70;1.42;;;;;;;;;;5093212;28;20235;-74
2024/01/09 12:15:47;;;;;;;4.70;1.00;;;;;;;;;;5094828;28;20582;-74
2024/01/09 12:18:14;;;;;;;6.65;1.45;;;;;;;;;;5094568;28;20082;-76
2024/01/09 12:20:41;;;;;;;2.85;1.00;;;;;;;;;;5094602;28;20056;-75
2024/01/09 12:23:08;;;;;;;3.38;0.98;;;;;;;;;;5076442;28;20473;-78
2024/01/09 12:25:34;;;;;;;5.90;1.13;;;;;;;;;;5093565;28;20047;-74
2024/01/09 12:28:01;;;;;;;4.13;1.10;;;;;;;;;;5094785;28;20043;-74
2024/01/09 12:30:28;;;;;;;2.63;0.88;;;;;;;;;;5093224;28;20139;-75
2024/01/09 12:32:54;;;;;;;4.65;1.05;;;;;;;;;;5093061;28;20040;-74
2024/01/09 12:35:21;;;;;;;2.33;0.70;;;;;;;;;;5093819;28;20071;-78
2024/01/09 12:37:47;;;;;;;9.32;1.27;;;;;;;;;;5076439;28;20055;-74
2024/01/09 12:40:18;;;;;;;4.28;1.20;;;;;;;;;;5095195;28;20120;-75
2024/01/09 12:42:45;;;;;;;5.03;0.70;;;;;;;;;;5098902;28;20040;-74
2024/01/09 12:45:11;;;;;;;4.83;0.87;;;;;;;;;;5101599;28;20044;-75
2024/01/09 12:47:37;;;;;;;3.83;1.00;;;;;;;;;;5105132;28;20048;-77
2024/01/09 12:50:04;;;;;;;3.85;1.13;;;;;;;;;;5098405;28;20337;-74
2024/01/09 12:52:31;;;;;;;6.40;1.30;;;;;;;;;;5078227;28;20060;-76
2024/01/09 12:54:57;;;;;;;4.85;1.10;;;;;;;;;;5094994;28;20642;-73
2024/01/09 12:57:23;;;;;;;4.18;1.20;;;;;;;;;;5093370;28;20051;-77
2024/01/09 12:59:49;;;;;;;2.85;0.85;;;;;;;;;;5093266;28;20129;-76
2024/01/09 13:02:15;;;;;;;6.53;2.05;;;;;;;;;;5093735;28;20044;-77
2024/01/09 13:04:41;;;;;;;3.25;0.90;;;;;;;;;;5093981;28;20044;-75
2024/01/09 13:07:07;;;;;;;6.88;1.73;;;;;;;;;;5094135;28;20048;-75
2024/01/09 13:09:33;;;;;;;5.35;1.02;;;;;;;;;;5096545;28;20047;-76
2024/01/09 13:11:59;;;;;;;6.45;1.38;;;;;;;;;;5098167;28;20043;-76
2024/01/09 13:14:26;;;;;;;4.60;1.02;;;;;;;;;;5097603;28;20050;-75
2024/01/09 13:16:52;;;;;;;3.95;0.88;;;;;;;;;;5080664;28;20436;-75
2024/01/09 13:19:21;;;;;;;4.25;1.20;;;;;;;;;;5098663;28;20044;-75
2024/01/09 13:21:48;;;;;;;5.28;1.05;;;;;;;;;;5081074;28;20059;-74
2024/01/09 13:24:14;;;;;;;6.65;1.58;;;;;;;;;;5099601;28;20051;-76
2024/01/09 13:26:41;;;;;;;5.88;1.50;;;;;;;;;;5099704;28;20086;-76
2024/01/09 13:29:07;;;;;;;6.55;1.85;;;;;;;;;;5101369;28;20429;-76
2024/01/09 13:31:33;;;;;;;5.70;1.40;;;;;;;;;;5102884;28;20083;-76
2024/01/09 13:33:59;;;;;;;6.15;1.67;;;;;;;;;;5101365;28;20370;-77
2024/01/09 13:36:26;;;;;;;3.53;1.40;;;;;;;;;;5099644;28;20048;-75
2024/01/09 13:38:52;;;;;;;6.97;2.20;;;;;;;;;;5100846;28;20051;-74
2024/01/09 13:41:19;;;;;;;3.42;1.13;;;;;;;;;;5098883;28;20377;-77
2024/01/09 13:43:46;;;;;;;3.20;1.15;;;;;;;;;;5098341;28;20094;-76
2024/01/09 13:46:14;;;;;;;;;;;;;;;;;;5099739;28;20058;-78
2024/01/09 13:48:44;;;;;;;2.63;0.73;;;;;;;;;;5099351;28;19920;-76
2024/01/09 13:51:11;;;;;;;4.05;1.35;;;;;;;;;;5103017;28;20545;-78
2024/01/09 13:53:37;;;;;;;3.42;1.02;;;;;;;;;;5100903;28;20100;-76
2024/01/09 13:56:04;;;;;;;6.32;1.80;;;;;;;;;;5104676;28;20044;-77
2024/01/09 13:58:30;;;;;;;5.85;1.17;;;;;;;;;;5103812;28;20407;-77
2024/01/09 14:00:56;;;;;;;4.00;1.10;;;;;;;;;;5100451;28;20044;-76
2024/01/09 14:03:25;;;;;;;6.03;1.45;;;;;;;;;;5102275;28;20377;-80
2024/01/09 14:05:52;;;;;;;4.45;0.95;;;;;;;;;;5100521;28;20560;-78
2024/01/09 14:08:18;;;;;;;5.93;1.55;;;;;;;;;;5098819;28;20048;-76
2024/01/09 14:10:44;;;;;;;3.45;0.90;;;;;;;;;;5100650;28;20066;-77
2024/01/09 14:13:11;;;;;;;3.92;1.33;;;;;;;;;;5100408;28;20098;-77
2024/01/09 14:15:37;;;;;;;5.05;1.15;;;;;;;;;;5098868;28;20044;-75
2024/01/09 14:18:04;;;;;;;6.75;1.40;;;;;;;;;;5100895;28;20417;-77
2024/01/09 14:20:31;;;;;;;2.92;0.63;;;;;;;;;;5101077;28;20048;-77
2024/01/09 14:22:57;;;;;;;4.05;1.05;;;;;;;;;;5102763;28;20447;-74
2024/01/09 14:25:23;;;;;;;3.65;1.10;;;;;;;;;;5098795;28;20055;-76
2024/01/09 14:27:49;;;;;;;5.65;1.35;;;;;;;;;;5100777;28;20374;-76
2024/01/09 14:30:18;;;;;;;7.78;1.33;;;;;;;;;;5097803;28;20083;-77
2024/01/09 14:32:49;;;;;;;5.90;1.33;;;;;;;;;;5081587;28;20506;-75
2024/01/09 14:35:15;;;;;;;5.28;1.52;;;;;;;;;;5098820;28;20502;-76
2024/01/09 14:37:42;;;;;;;7.32;1.58;;;;;;;;;;5100641;28;20134;-78
2024/01/09 14:40:11;;;;;;;7.07;1.60;;;;;;;;;;5101323;28;20051;-77